Time;durP1;ratioP1;P1;durP2;ratioP2;P2;SDS_P1;SDS_P2;PMS_P1;PMS_P2;Temp;Humidity;BMP_temperature;BMP_pressure;BME280_temperature;BME280_humidity;BME280_pressure;Samples;Min_cycle;Max_cycle;Signal;HPM_P1;HPM_P2
2022/05/10 00:02:10;;;;;;;5.03;2.95;;;;;;;10.86;nan;102501.97;5069378;28;20020;-83
2022/05/10 00:04:36;;;;;;;6.28;3.38;;;;;;;10.82;nan;102500.72;5068461;28;20413;-82
2022/05/10 00:07:02;;;;;;;8.85;3.33;;;;;;;10.79;nan;102501.97;5066835;28;20029;-83
2022/05/10 00:09:29;;;;;;;5.80;2.90;;;;;;;10.78;nan;102503.00;5070406;28;20039;-82
2022/05/10 00:11:56;;;;;;;7.25;3.38;;;;;;;10.76;nan;102499.69;5065959;28;20032;-82
2022/05/10 00:14:22;;;;;;;6.78;3.38;;;;;;;10.76;nan;102496.19;5069317;28;20024;-83
2022/05/10 00:16:51;;;;;;;9.57;3.85;;;;;;;10.76;nan;102496.19;5070476;28;20078;-83
2022/05/10 00:19:18;;;;;;;6.32;2.95;;;;;;;10.74;nan;102504.44;5068700;28;20059;-83
2022/05/10 00:21:45;;;;;;;6.05;3.00;;;;;;;10.72;nan;102501.13;5069619;28;20030;-83
2022/05/10 00:24:11;;;;;;;5.80;3.00;;;;;;;10.70;nan;102502.38;5066542;28;20020;-83
2022/05/10 00:26:37;;;;;;;5.55;3.10;;;;;;;10.70;nan;102491.66;5069001;28;20028;-83
2022/05/10 00:29:03;;;;;;;7.88;3.17;;;;;;;10.69;nan;102495.34;5072630;28;20021;-83
2022/05/10 00:31:29;;;;;;;7.72;3.40;;;;;;;10.67;nan;102497.44;5053348;28;20032;-83
2022/05/10 00:33:55;;;;;;;6.65;3.42;;;;;;;10.66;nan;102495.78;5071556;28;20028;-83
2022/05/10 00:36:23;;;;;;;7.20;3.45;;;;;;;10.65;nan;102491.44;5072122;28;20023;-83
2022/05/10 00:38:50;;;;;;;7.38;3.33;;;;;;;10.64;nan;102487.13;5072255;28;20067;-82
2022/05/10 00:41:41;;;;;;;4.90;2.40;;;;;;;10.52;nan;102485.03;5068444;28;20016;-83
2022/05/10 00:44:36;;;;;;;7.60;3.03;;;;;;;10.50;nan;102487.09;5065914;28;20041;-83
2022/05/10 00:47:10;;;;;;;12.90;3.42;;;;;;;10.50;nan;102479.06;5070000;28;20028;-83
2022/05/10 00:49:48;;;;;;;6.07;3.17;;;;;;;10.38;nan;102472.66;5066366;28;20555;-83
2022/05/10 00:52:25;;;;;;;6.75;2.83;;;;;;;10.25;nan;102467.31;5070699;28;20036;-83
2022/05/10 00:55:02;;;;;;;8.35;3.40;;;;;;;10.15;nan;102458.78;5072004;28;20089;-83
2022/05/10 00:57:36;;;;;;;7.28;3.40;;;;;;;10.09;nan;102457.75;5065841;28;20021;-83
2022/05/10 01:00:07;;;;;;;5.70;2.97;;;;;;;10.00;nan;102453.59;5070626;28;20035;-82
2022/05/10 01:03:10;;;;;;;7.47;3.72;;;;;;;9.89;nan;102446.19;5071027;28;20086;-83
2022/05/10 01:05:56;;;;;;;6.40;3.83;;;;;;;9.92;nan;102441.25;5068772;28;20066;-83
2022/05/10 01:08:31;;;;;;;8.73;3.97;;;;;;;9.85;nan;102432.34;5066516;28;20029;-83
2022/05/10 01:11:14;;;;;;;7.03;3.33;;;;;;;9.84;nan;102432.56;5063914;28;20020;-84
2022/05/10 01:13:49;;;;;;;6.68;3.28;;;;;;;9.81;nan;102431.13;5069209;28;20032;-80
2022/05/10 01:16:19;;;;;;;;;;;;;;;9.70;nan;102426.38;5069225;28;20025;-81
2022/05/10 01:18:46;;;;;;;9.43;4.05;;;;;;;9.81;nan;102424.94;5070046;28;19947;-80
2022/05/10 01:21:17;;;;;;;5.10;3.22;;;;;;;9.80;nan;102420.59;5068198;28;20024;-80
2022/05/10 01:24:09;;;;;;;10.73;3.92;;;;;;;9.77;nan;102429.88;5066346;28;20063;-80
2022/05/10 01:26:50;;;;;;;4.75;2.60;;;;;;;9.77;nan;102415.66;5069660;28;20038;-81
2022/05/10 01:29:31;;;;;;;6.88;3.47;;;;;;;9.76;nan;102420.19;5069266;28;20037;-81
2022/05/10 01:34:49;;;;;;;4.18;2.90;;;;;;;9.77;nan;102411.13;5070246;28;20088;-81
2022/05/10 01:37:20;;;;;;;5.90;2.58;;;;;;;9.76;nan;102409.50;5070138;28;20529;-81
2022/05/10 01:40:01;;;;;;;6.47;2.97;;;;;;;9.72;nan;102408.25;5063290;28;20025;-81
2022/05/10 01:44:56;;;;;;;6.07;2.90;;;;;;;9.73;nan;102412.56;5016768;28;20053;-48
2022/05/10 01:47:43;;;;;;;4.65;2.65;;;;;;;9.68;nan;102409.66;5018852;28;20044;-48
2022/05/10 01:50:17;;;;;;;10.90;3.03;;;;;;;9.68;nan;102407.78;5019335;28;20053;-48
2022/05/10 01:53:06;;;;;;;5.88;2.50;;;;;;;9.61;nan;102400.78;5017864;28;20018;-47
2022/05/10 01:55:35;;;;;;;8.93;2.70;;;;;;;9.64;nan;102401.22;5019835;28;20057;-49
2022/05/10 01:58:07;;;;;;;4.35;2.20;;;;;;;9.64;nan;102403.06;5018383;28;20698;-52
2022/05/10 02:00:34;;;;;;;5.65;3.00;;;;;;;9.62;nan;102403.25;5014857;28;20096;-51
2022/05/10 02:02:59;;;;;;;19.45;3.83;;;;;;;9.60;nan;102401.81;5019943;28;20017;-50
2022/05/10 02:05:38;;;;;;;6.93;3.10;;;;;;;9.48;nan;102401.56;5016850;28;20033;-49
2022/05/10 02:08:11;;;;;;;7.22;2.95;;;;;;;9.44;nan;102396.81;5020855;28;20040;-49
2022/05/10 02:10:42;;;;;;;6.43;2.60;;;;;;;9.36;nan;102395.97;5017127;28;20079;-54
2022/05/10 02:13:16;;;;;;;4.78;2.80;;;;;;;9.25;nan;102391.19;5021331;28;20096;-50
2022/05/10 02:15:49;;;;;;;5.57;2.90;;;;;;;9.17;nan;102401.25;5016421;28;20026;-52
2022/05/10 02:18:21;;;;;;;4.25;2.58;;;;;;;9.08;nan;102396.03;5019239;28;20174;-51
2022/05/10 02:20:55;;;;;;;4.47;2.90;;;;;;;9.03;nan;102400.34;5015390;28;20031;-51
2022/05/10 02:23:30;;;;;;;6.53;3.17;;;;;;;8.91;nan;102388.53;5018656;28;20878;-50
2022/05/10 02:26:16;;;;;;;;;;;;;;;8.73;nan;102400.56;5020998;28;20056;-48
2022/05/10 02:28:48;;;;;;;12.43;4.15;;;;;;;8.78;nan;102394.63;5013605;28;20176;-48
2022/05/10 02:31:25;;;;;;;7.72;3.38;;;;;;;8.67;nan;102396.00;5018537;28;20038;-50
2022/05/10 02:33:51;;;;;;;10.40;3.05;;;;;;;8.62;nan;102398.44;5017355;28;20419;-53
2022/05/10 02:36:18;;;;;;;7.40;3.03;;;;;;;8.55;nan;102392.22;5019642;28;20049;-49
2022/05/10 02:38:44;;;;;;;15.27;3.90;;;;;;;8.48;nan;102388.69;5019869;28;20475;-51
2022/05/10 02:41:17;;;;;;;12.85;3.30;;;;;;;8.40;nan;102394.16;5020506;28;20045;-52
2022/05/10 02:43:52;;;;;;;11.02;3.28;;;;;;;8.33;nan;102385.22;5002128;28;20040;-50
2022/05/10 02:46:17;;;;;;;6.20;3.38;;;;;;;8.29;nan;102376.78;5022298;28;20049;-49
2022/05/10 02:48:45;;;;;;;7.00;3.05;;;;;;;8.27;nan;102386.00;5019904;28;20406;-51
2022/05/10 02:51:11;;;;;;;9.27;3.30;;;;;;;8.27;nan;102380.66;5020250;28;20493;-49
2022/05/10 02:53:36;;;;;;;8.48;3.58;;;;;;;8.24;nan;102367.69;5022491;28;20108;-49
2022/05/10 02:56:07;;;;;;;5.45;3.30;;;;;;;8.19;nan;102361.09;5022978;28;20064;-50
2022/05/10 02:58:47;;;;;;;6.35;3.40;;;;;;;8.15;nan;102356.31;5020525;28;20044;-49
2022/05/10 03:01:34;;;;;;;10.65;3.63;;;;;;;7.97;nan;102354.13;5021969;28;20018;-51
2022/05/10 03:04:01;;;;;;;7.30;3.15;;;;;;;7.92;nan;102361.88;5020295;28;20030;-49
2022/05/10 03:06:28;;;;;;;7.70;3.30;;;;;;;7.87;nan;102369.59;5018812;28;20549;-53
2022/05/10 03:08:54;;;;;;;8.60;2.90;;;;;;;7.85;nan;102364.47;5022814;28;20071;-48
2022/05/10 03:11:20;;;;;;;8.95;3.40;;;;;;;7.86;nan;102362.63;5023556;28;20037;-49
2022/05/10 03:13:47;;;;;;;6.68;2.85;;;;;;;7.85;nan;102364.47;5021943;28;20675;-51
2022/05/10 03:16:16;;;;;;;10.00;3.47;;;;;;;7.84;nan;102360.16;5020963;28;20030;-50
2022/05/10 03:18:42;;;;;;;8.38;3.40;;;;;;;7.82;nan;102359.50;5018623;28;20391;-49
2022/05/10 03:21:08;;;;;;;9.27;3.60;;;;;;;7.78;nan;102360.91;5019706;28;20064;-50
2022/05/10 03:23:34;;;;;;;8.65;4.13;;;;;;;7.74;nan;102356.16;5018534;28;20468;-49
2022/05/10 03:26:00;;;;;;;14.68;4.03;;;;;;;7.70;nan;102363.69;5020295;28;20423;-51
2022/05/10 03:28:25;;;;;;;8.52;4.13;;;;;;;7.67;nan;102363.25;5020055;28;20076;-53
2022/05/10 03:30:51;;;;;;;11.57;4.40;;;;;;;7.64;nan;102358.31;5020745;28;20064;-48
2022/05/10 03:33:18;;;;;;;11.13;3.90;;;;;;;7.61;nan;102354.19;5016807;28;20029;-48
2022/05/10 03:35:43;;;;;;;25.90;5.32;;;;;;;7.60;nan;102357.03;5019941;28;20032;-51
2022/05/10 03:38:09;;;;;;;19.25;4.95;;;;;;;7.59;nan;102353.53;5020261;28;20041;-53
2022/05/10 03:40:34;;;;;;;17.60;4.88;;;;;;;7.58;nan;102352.72;5019894;28;20025;-51
2022/05/10 03:43:01;;;;;;;19.40;4.72;;;;;;;7.60;nan;102341.84;5019414;28;20381;-51
2022/05/10 03:45:27;;;;;;;24.95;5.20;;;;;;;7.62;nan;102333.66;5016601;28;20135;-52
2022/05/10 03:47:54;;;;;;;25.42;4.72;;;;;;;7.60;nan;102331.19;5020945;28;20694;-51
2022/05/10 03:50:22;;;;;;;13.93;3.90;;;;;;;7.65;nan;102339.44;5020001;28;20403;-51
2022/05/10 03:52:49;;;;;;;12.82;4.15;;;;;;;7.68;nan;102333.72;5020444;28;20032;-52
2022/05/10 03:55:25;;;;;;;10.93;4.35;;;;;;;7.71;nan;102332.50;5021184;28;20117;-52
2022/05/10 03:57:52;;;;;;;9.07;4.00;;;;;;;7.77;nan;102339.75;5020394;28;20037;-51
2022/05/10 04:00:23;;;;;;;7.75;3.90;;;;;;;7.84;nan;102324.63;5019961;28;20096;-51
2022/05/10 04:02:49;;;;;;;13.35;3.25;;;;;;;7.93;nan;102328.84;5023849;28;20038;-52
2022/05/10 04:05:16;;;;;;;29.77;5.15;;;;;;;7.99;nan;102329.91;5018955;28;20076;-50
2022/05/10 04:07:41;;;;;;;33.45;5.50;;;;;;;8.06;nan;102317.41;5020106;28;20039;-51
2022/05/10 04:10:08;;;;;;;70.50;10.50;;;;;;;8.13;nan;102312.97;5002991;28;20483;-53
2022/05/10 04:12:35;;;;;;;102.60;12.13;;;;;;;8.19;nan;102320.22;5022935;28;20049;-53
2022/05/10 04:15:02;;;;;;;32.03;4.85;;;;;;;8.22;nan;102322.50;5018844;28;20112;-50
2022/05/10 04:17:28;;;;;;;10.10;3.33;;;;;;;8.24;nan;102322.28;5022902;28;20061;-53
2022/05/10 04:19:53;;;;;;;11.85;4.18;;;;;;;8.33;nan;102318.47;5019001;28;20072;-49
2022/05/10 04:22:19;;;;;;;7.25;3.17;;;;;;;8.42;nan;102318.13;5021792;28;20030;-51
2022/05/10 04:24:44;;;;;;;9.23;3.08;;;;;;;8.54;nan;102315.75;5021163;28;20055;-50
2022/05/10 04:27:10;;;;;;;8.02;2.85;;;;;;;8.63;nan;102313.78;5020543;28;20021;-50
2022/05/10 04:29:35;;;;;;;12.27;2.78;;;;;;;8.75;nan;102312.19;5019394;28;20044;-49
2022/05/10 04:32:01;;;;;;;6.28;2.95;;;;;;;8.83;nan;102308.53;5018221;28;20037;-49
2022/05/10 04:34:26;;;;;;;11.55;2.88;;;;;;;8.92;nan;102305.47;5021861;28;20100;-53
2022/05/10 04:36:52;;;;;;;3.63;2.60;;;;;;;9.03;nan;102304.91;5018231;28;20091;-49
2022/05/10 04:39:17;;;;;;;5.60;2.90;;;;;;;9.14;nan;102308.84;5019535;28;20581;-50
2022/05/10 04:41:47;;;;;;;4.38;2.33;;;;;;;9.24;nan;102303.94;5018440;28;20416;-50
2022/05/10 04:44:13;;;;;;;5.03;3.33;;;;;;;9.35;nan;102302.56;5019309;28;20025;-50
2022/05/10 04:46:40;;;;;;;5.32;2.40;;;;;;;9.45;nan;102305.66;5015901;28;20028;-48
2022/05/10 04:49:09;;;;;;;6.00;2.35;;;;;;;9.56;nan;102296.22;5020221;28;20029;-49
2022/05/10 04:51:35;;;;;;;6.47;2.10;;;;;;;9.67;nan;102299.09;5019462;28;20491;-50
2022/05/10 04:54:01;;;;;;;6.82;2.10;;;;;;;9.81;nan;102304.47;5018623;28;20084;-51
2022/05/10 04:56:27;;;;;;;4.50;2.63;;;;;;;9.89;nan;102297.06;5019364;28;20033;-50
2022/05/10 04:58:54;;;;;;;4.85;2.80;;;;;;;9.96;nan;102303.25;5018229;28;21539;-53
2022/05/10 05:01:25;;;;;;;7.55;2.83;;;;;;;10.06;nan;102307.38;5018777;28;20036;-49
2022/05/10 05:03:50;;;;;;;8.15;2.65;;;;;;;10.13;nan;102302.84;5017494;28;20040;-49
2022/05/10 05:06:17;;;;;;;10.07;2.75;;;;;;;10.19;nan;102304.66;5020104;28;20033;-52
2022/05/10 05:08:43;;;;;;;8.35;3.10;;;;;;;10.29;nan;102292.53;5014412;28;20131;-50
2022/05/10 05:11:09;;;;;;;4.78;2.42;;;;;;;10.43;nan;102285.31;5022305;28;20037;-50
2022/05/10 05:13:35;;;;;;;5.25;2.33;;;;;;;10.57;nan;102286.09;5022567;28;20025;-49
2022/05/10 05:16:01;;;;;;;4.38;2.40;;;;;;;10.69;nan;102289.78;5020866;28;20029;-48
2022/05/10 05:18:27;;;;;;;3.53;2.60;;;;;;;10.79;nan;102290.16;5017489;28;20033;-53
2022/05/10 05:20:53;;;;;;;5.35;2.30;;;;;;;10.89;nan;102289.69;5020067;28;20502;-53
2022/05/10 05:23:21;;;;;;;8.60;2.95;;;;;;;11.00;nan;102294.41;5016213;28;20068;-48
2022/05/10 05:25:46;;;;;;;8.48;2.60;;;;;;;11.10;nan;102288.56;5022633;28;20031;-50
2022/05/10 05:28:12;;;;;;;6.45;2.60;;;;;;;11.17;nan;102289.38;5023463;28;20113;-49
2022/05/10 05:30:40;;;;;;;4.95;2.40;;;;;;;11.25;nan;102297.16;5020869;28;20164;-53
2022/05/10 05:33:06;;;;;;;5.28;2.25;;;;;;;11.38;nan;102294.41;5019883;28;20052;-51
2022/05/10 05:35:33;;;;;;;6.25;2.47;;;;;;;11.50;nan;102291.88;5016560;28;20029;-49
2022/05/10 05:37:59;;;;;;;6.10;2.67;;;;;;;11.59;nan;102281.69;5020477;28;20029;-53
2022/05/10 05:40:25;;;;;;;6.32;2.50;;;;;;;11.71;nan;102272.72;5017135;28;20388;-52
2022/05/10 05:42:52;;;;;;;5.97;2.65;;;;;;;11.83;nan;102272.84;5022041;28;20495;-51
2022/05/10 05:45:21;;;;;;;7.25;2.30;;;;;;;11.98;nan;102275.22;5019064;28;20467;-48
2022/05/10 05:47:46;;;;;;;3.53;1.90;;;;;;;12.11;nan;102269.72;5018937;28;20347;-48
2022/05/10 05:50:14;;;;;;;5.15;2.70;;;;;;;12.29;nan;102266.25;5021250;28;20096;-50
2022/05/10 05:52:41;;;;;;;3.47;2.03;;;;;;;12.41;nan;102269.84;5017785;28;20021;-49
2022/05/10 05:55:09;;;;;;;6.13;2.33;;;;;;;12.58;nan;102275.47;5026196;28;20031;-50
2022/05/10 05:57:35;;;;;;;5.45;2.75;;;;;;;12.72;nan;102271.53;5021304;28;20037;-50
2022/05/10 06:00:02;;;;;;;4.97;1.92;;;;;;;12.84;nan;102261.69;5020377;28;20507;-48
2022/05/10 06:02:27;;;;;;;4.47;2.33;;;;;;;13.01;nan;102261.88;5026024;28;20030;-53
2022/05/10 06:04:54;;;;;;;5.25;2.40;;;;;;;13.14;nan;102258.19;5020074;28;20040;-50
2022/05/10 06:07:20;;;;;;;5.05;2.92;;;;;;;13.23;nan;102263.03;5018113;28;20048;-48
2022/05/10 06:09:47;;;;;;;3.97;2.03;;;;;;;13.32;nan;102260.03;5023320;28;20140;-50
2022/05/10 06:12:16;;;;;;;5.40;2.33;;;;;;;13.43;nan;102257.38;5028369;28;20343;-48
2022/05/10 06:14:42;;;;;;;4.78;1.95;;;;;;;13.57;nan;102258.00;5029164;28;20025;-52
2022/05/10 06:17:09;;;;;;;10.25;3.13;;;;;;;13.69;nan;102239.16;5027681;28;20495;-49
2022/05/10 06:19:37;;;;;;;6.13;2.63;;;;;;;13.88;nan;102240.72;5016513;28;20033;-53
2022/05/10 06:22:04;;;;;;;6.20;2.33;;;;;;;14.02;nan;102239.44;5030977;28;20351;-49
2022/05/10 06:24:29;;;;;;;3.35;2.05;;;;;;;14.15;nan;102233.78;5024206;28;20068;-51
2022/05/10 06:26:55;;;;;;;4.72;2.65;;;;;;;14.28;nan;102237.28;5026364;28;20245;-46
2022/05/10 06:29:21;;;;;;;5.72;2.63;;;;;;;14.44;nan;102242.00;5020212;28;20021;-50
2022/05/10 06:31:47;;;;;;;5.63;2.95;;;;;;;14.63;nan;102240.78;5024337;28;20521;-50
2022/05/10 06:34:14;;;;;;;9.15;2.83;;;;;;;14.78;nan;102237.56;5018584;28;20026;-48
2022/05/10 06:36:41;;;;;;;7.20;2.78;;;;;;;15.00;nan;102241.22;5024294;28;20103;-46
2022/05/10 06:39:07;;;;;;;5.68;2.75;;;;;;;15.17;nan;102246.69;5022952;28;20052;-48
2022/05/10 06:41:33;;;;;;;9.13;2.63;;;;;;;15.34;nan;102244.81;5033509;28;20039;-48
2022/05/10 06:43:59;;;;;;;6.65;2.67;;;;;;;15.50;nan;102239.69;5019685;28;20025;-51
2022/05/10 06:46:27;;;;;;;12.07;3.13;;;;;;;15.62;nan;102237.78;5024536;28;20033;-49
2022/05/10 06:48:53;;;;;;;9.07;2.63;;;;;;;15.72;nan;102237.91;5020991;28;20028;-50
2022/05/10 06:51:24;;;;;;;4.93;2.70;;;;;;;15.88;nan;102230.88;5021137;28;20173;-48
2022/05/10 06:53:50;;;;;;;8.95;2.47;;;;;;;16.03;nan;102239.22;5019127;28;20033;-49
2022/05/10 06:56:17;;;;;;;7.32;2.78;;;;;;;16.21;nan;102225.41;5018834;28;20022;-48
2022/05/10 06:58:42;;;;;;;7.55;2.53;;;;;;;16.35;nan;102211.53;5022393;28;20480;-46
2022/05/10 07:01:12;;;;;;;8.88;3.40;;;;;;;16.46;nan;102218.69;5024826;28;20048;-47
2022/05/10 07:03:50;;;;;;;6.38;2.55;;;;;;;16.44;nan;102218.94;5018616;28;20296;-51
2022/05/10 07:06:22;;;;;;;6.10;3.03;;;;;;;16.50;nan;102223.34;5017425;28;20104;-46
2022/05/10 07:08:48;;;;;;;6.50;2.63;;;;;;;16.57;nan;102215.03;5021343;28;20033;-48
2022/05/10 07:11:13;;;;;;;7.53;2.95;;;;;;;16.64;nan;102207.53;5020229;28;20440;-47
2022/05/10 07:13:39;;;;;;;6.53;2.83;;;;;;;16.79;nan;102204.22;5022606;28;20029;-45
2022/05/10 07:16:05;;;;;;;9.10;3.30;;;;;;;16.90;nan;102209.50;5019679;28;20053;-46
2022/05/10 07:18:31;;;;;;;7.20;3.47;;;;;;;17.05;nan;102203.41;5017223;28;20041;-49
2022/05/10 07:20:57;;;;;;;10.15;3.15;;;;;;;17.21;nan;102202.47;5023144;28;20621;-48
2022/05/10 07:23:26;;;;;;;6.00;3.03;;;;;;;17.36;nan;102196.38;5016293;28;20026;-46
2022/05/10 07:25:51;;;;;;;5.95;3.13;;;;;;;17.53;nan;102202.47;5024223;28;20418;-47
2022/05/10 07:28:17;;;;;;;5.38;2.80;;;;;;;17.72;nan;102199.41;5016365;28;20022;-45
2022/05/10 07:30:44;;;;;;;6.18;2.72;;;;;;;17.74;nan;102194.53;5024386;28;20083;-47
2022/05/10 07:33:10;;;;;;;9.18;3.47;;;;;;;17.85;nan;102196.25;5020141;28;20049;-47
2022/05/10 07:38:20;;;;;;;5.57;2.55;;;;;;;18.10;nan;102184.72;5022949;28;20064;-46
2022/05/10 07:40:49;;;;;;;9.73;2.97;;;;;;;18.22;nan;102179.91;5024619;28;20475;-50
2022/05/10 07:43:16;;;;;;;6.72;2.60;;;;;;;18.48;nan;102177.28;5020560;28;20488;-51
2022/05/10 07:45:45;;;;;;;6.68;2.30;;;;;;;18.61;nan;102182.22;5022247;28;20017;-49
2022/05/10 07:48:11;;;;;;;5.15;2.90;;;;;;;18.57;nan;102184.66;5019031;28;20029;-49
2022/05/10 07:50:37;;;;;;;5.90;2.70;;;;;;;18.59;nan;102182.47;5020849;28;20021;-46
2022/05/10 07:53:06;;;;;;;9.45;2.70;;;;;;;18.59;nan;102181.66;5020426;28;20034;-48
2022/05/10 07:55:34;;;;;;;7.82;3.13;;;;;;;18.73;nan;102174.69;5022167;28;20384;-45
2022/05/10 07:58:00;;;;;;;4.95;2.35;;;;;;;18.92;nan;102173.09;5020375;28;20037;-45
2022/05/10 08:00:25;;;;;;;7.18;2.47;;;;;;;19.09;nan;102172.84;5019770;28;20022;-45
2022/05/10 08:02:51;;;;;;;7.22;3.20;;;;;;;19.28;nan;102173.13;5019299;28;20040;-46
2022/05/10 08:05:20;;;;;;;16.90;3.78;;;;;;;19.40;nan;102164.69;5023657;28;20117;-45
2022/05/10 08:07:45;;;;;;;8.07;3.20;;;;;;;19.53;nan;102164.94;5018211;28;20033;-47
2022/05/10 08:10:11;;;;;;;8.07;2.90;;;;;;;19.68;nan;102155.97;5014074;28;20030;-46
2022/05/10 08:12:37;;;;;;;8.98;2.65;;;;;;;19.79;nan;102148.63;5020104;28;20030;-46
2022/05/10 08:15:04;;;;;;;5.90;2.55;;;;;;;19.92;nan;102148.03;5014847;28;20469;-45
2022/05/10 08:17:30;;;;;;;7.22;2.92;;;;;;;20.12;nan;102150.69;5019599;28;20041;-48
2022/05/10 08:19:56;;;;;;;5.97;3.05;;;;;;;20.33;nan;102143.25;4998888;28;20024;-45
2022/05/10 08:22:22;;;;;;;5.13;2.90;;;;;;;20.52;nan;102140.72;5022715;28;20022;-46
2022/05/10 08:24:47;;;;;;;5.43;2.60;;;;;;;20.69;nan;102140.34;5019352;28;20033;-45
2022/05/10 08:27:13;;;;;;;5.10;2.83;;;;;;;20.84;nan;102136.72;5018414;28;20045;-46
2022/05/10 08:29:38;;;;;;;5.90;2.60;;;;;;;20.84;nan;102131.28;5018451;28;20025;-46
2022/05/10 08:32:04;;;;;;;6.30;3.00;;;;;;;20.76;nan;102130.75;5017593;28;20101;-46
2022/05/10 08:34:32;;;;;;;6.05;2.58;;;;;;;20.91;nan;102132.56;5019069;28;20037;-46
2022/05/10 08:37:03;;;;;;;6.47;2.50;;;;;;;21.22;nan;102138.59;5022001;28;20022;-46
2022/05/10 08:39:28;;;;;;;5.22;2.90;;;;;;;21.47;nan;102139.47;5021583;28;20033;-46
2022/05/10 08:41:59;;;;;;;6.43;2.70;;;;;;;21.48;nan;102124.75;5021799;28;21279;-47
2022/05/10 08:44:28;;;;;;;4.00;2.90;;;;;;;21.61;nan;102118.63;5019660;28;20107;-46
2022/05/10 08:47:05;;;;;;;3.58;2.60;;;;;;;21.61;nan;102122.16;5018695;28;20100;-45
2022/05/10 08:49:35;;;;;;;5.35;2.30;;;;;;;21.66;nan;102115.81;5016554;28;20112;-45
2022/05/10 08:52:03;;;;;;;10.70;2.58;;;;;;;21.77;nan;102111.91;5024380;28;20025;-46
2022/05/10 08:54:30;;;;;;;8.55;3.40;;;;;;;21.84;nan;102111.53;5023566;28;20441;-45
2022/05/10 08:57:03;;;;;;;12.70;3.20;;;;;;;21.94;nan;102104.06;5021069;28;20029;-46
2022/05/10 09:00:04;;;;;;;9.98;2.70;;;;;;;22.07;nan;102099.00;5021626;28;20060;-45
2022/05/10 09:02:52;;;;;;;9.65;2.85;;;;;;;22.22;nan;102094.16;5019550;28;20065;-45
2022/05/10 09:05:24;;;;;;;8.43;2.45;;;;;;;22.36;nan;102096.97;5018076;28;20369;-46
2022/05/10 09:08:11;;;;;;;9.30;2.58;;;;;;;22.30;nan;102082.59;5017562;28;20033;-46
2022/05/10 09:10:50;;;;;;;10.70;3.22;;;;;;;22.52;nan;102100.28;5015581;28;20025;-48
2022/05/10 09:13:19;;;;;;;7.70;2.65;;;;;;;22.45;nan;102088.94;5014089;28;20033;-46
2022/05/10 09:16:00;;;;;;;4.90;2.60;;;;;;;22.45;nan;102076.09;5013778;28;20053;-45
2022/05/10 09:18:39;;;;;;;7.28;3.45;;;;;;;22.66;nan;102073.06;5018549;28;20021;-46
2022/05/10 09:21:19;;;;;;;5.47;2.40;;;;;;;22.62;nan;102067.34;5017251;28;20021;-46
2022/05/10 09:24:12;;;;;;;6.43;2.97;;;;;;;22.58;nan;102069.06;5017708;28;20446;-47
2022/05/10 09:26:42;;;;;;;7.90;3.00;;;;;;;22.62;nan;102061.88;5015670;28;20013;-46
2022/05/10 09:29:26;;;;;;;8.75;2.58;;;;;;;22.60;nan;102070.38;5015567;28;20335;-46
2022/05/10 09:34:46;;;;;;;6.05;2.60;;;;;;;22.97;nan;102055.06;5023406;28;20036;-45
2022/05/10 09:37:37;;;;;;;6.53;3.10;;;;;;;23.07;nan;102056.81;5018925;28;20028;-46
2022/05/10 09:40:34;;;;;;;9.15;2.58;;;;;;;23.05;nan;102061.75;5016585;28;20033;-46
2022/05/10 09:43:32;;;;;;;7.88;3.20;;;;;;;23.00;nan;102059.94;5019210;28;20085;-45
2022/05/10 09:46:18;;;;;;;7.00;2.85;;;;;;;23.08;nan;102055.69;4979553;28;20068;-46
2022/05/10 09:48:45;;;;;;;8.43;3.13;;;;;;;23.08;nan;102044.75;5024025;28;20142;-48
2022/05/10 09:51:23;;;;;;;5.32;2.33;;;;;;;23.10;nan;102043.34;5020542;28;20033;-45
2022/05/10 09:53:50;;;;;;;4.80;2.25;;;;;;;23.23;nan;102032.75;5022146;28;20026;-46
2022/05/10 09:56:24;;;;;;;5.05;1.95;;;;;;;23.21;nan;102033.84;5017568;28;20065;-46
2022/05/10 09:59:00;;;;;;;3.30;1.98;;;;;;;23.32;nan;102022.69;5029086;28;20522;-46
2022/05/10 10:01:45;;;;;;;5.15;2.33;;;;;;;23.36;nan;102026.47;5017190;28;20040;-47
2022/05/10 10:04:37;;;;;;;5.32;2.40;;;;;;;23.52;nan;102025.06;5025532;28;20029;-45
2022/05/10 10:07:04;;;;;;;5.45;2.78;;;;;;;23.58;nan;102018.38;5020398;28;20040;-46
2022/05/10 10:09:31;;;;;;;6.32;2.75;;;;;;;23.66;nan;102022.31;5022888;28;20034;-46
2022/05/10 10:11:57;;;;;;;5.57;2.75;;;;;;;23.70;nan;102021.44;5020785;28;20428;-46
2022/05/10 10:14:41;;;;;;;5.80;2.60;;;;;;;23.87;nan;102017.22;5027064;28;20033;-46
2022/05/10 10:17:16;;;;;;;6.60;3.15;;;;;;;24.00;nan;102008.19;5022486;28;20040;-46
2022/05/10 10:19:47;;;;;;;7.45;2.30;;;;;;;24.14;nan;102011.69;5021039;28;20033;-45
2022/05/10 10:22:22;;;;;;;6.05;2.90;;;;;;;24.18;nan;102017.34;5022036;28;20026;-46
2022/05/10 10:24:50;;;;;;;3.90;2.38;;;;;;;24.25;nan;102010.34;5025670;28;20079;-46
2022/05/10 10:27:23;;;;;;;5.30;2.33;;;;;;;24.39;nan;102010.31;5019631;28;20033;-46
2022/05/10 10:30:01;;;;;;;4.88;1.95;;;;;;;24.52;nan;102003.16;5026370;28;20560;-47
2022/05/10 10:32:33;;;;;;;5.72;2.53;;;;;;;24.59;nan;102001.59;5021293;28;20383;-46
2022/05/10 10:35:04;;;;;;;7.43;2.20;;;;;;;24.65;nan;101988.56;5022191;28;20025;-46
2022/05/10 10:37:43;;;;;;;5.63;2.28;;;;;;;24.60;nan;101986.78;5018438;28;20030;-45
2022/05/10 10:40:39;;;;;;;5.50;2.33;;;;;;;24.60;nan;101988.72;5022541;28;20029;-46
2022/05/10 10:43:17;;;;;;;6.18;2.42;;;;;;;24.67;nan;101980.84;5018907;28;20087;-46
2022/05/10 10:45:51;;;;;;;4.10;2.15;;;;;;;24.79;nan;101969.31;5022366;28;20040;-46
2022/05/10 10:48:32;;;;;;;10.03;2.17;;;;;;;25.08;nan;101961.41;5021230;28;20044;-46
2022/05/10 10:50:58;;;;;;;4.32;1.90;;;;;;;25.05;nan;101977.69;5020927;28;20280;-46
2022/05/10 10:53:27;;;;;;;4.88;2.20;;;;;;;25.01;nan;101969.28;5018788;28;20209;-47
2022/05/10 10:56:14;;;;;;;3.83;2.33;;;;;;;25.14;nan;101964.84;5021717;28;20026;-46
2022/05/10 10:58:51;;;;;;;3.28;1.90;;;;;;;25.32;nan;101963.75;5023630;28;20124;-46
2022/05/10 11:01:26;;;;;;;5.93;1.80;;;;;;;25.43;nan;101956.84;5023292;28;20025;-46
2022/05/10 11:04:10;;;;;;;7.38;2.10;;;;;;;25.54;nan;101947.19;5023132;28;20108;-46
2022/05/10 11:06:45;;;;;;;6.05;2.05;;;;;;;25.56;nan;101936.69;5017748;28;20030;-46
2022/05/10 11:09:35;;;;;;;6.20;2.10;;;;;;;25.54;nan;101958.16;5025674;28;20476;-46
2022/05/10 11:12:19;;;;;;;5.18;2.42;;;;;;;25.40;nan;101941.00;5021187;28;20033;-46
2022/05/10 11:14:57;;;;;;;4.88;2.20;;;;;;;25.34;nan;101945.03;5019129;28;20068;-46
2022/05/10 11:17:29;;;;;;;5.53;2.28;;;;;;;25.26;nan;101946.63;5024958;28;20052;-45
2022/05/10 11:20:00;;;;;;;5.55;2.15;;;;;;;25.26;nan;101935.66;5015641;28;20359;-45
2022/05/10 11:22:48;;;;;;;5.55;1.98;;;;;;;25.21;nan;101937.75;5024333;28;20091;-44
2022/05/10 11:25:20;;;;;;;5.15;2.22;;;;;;;25.25;nan;101925.00;5019280;28;20025;-47
2022/05/10 11:28:22;;;;;;;3.72;2.22;;;;;;;25.33;nan;101924.22;5016523;28;20068;-47
2022/05/10 11:31:18;;;;;;;7.60;2.20;;;;;;;25.53;nan;101917.31;5019477;28;20056;-48
2022/05/10 11:33:57;;;;;;;5.35;2.20;;;;;;;25.85;nan;101907.81;5021853;28;20029;-46
2022/05/10 11:36:41;;;;;;;5.28;2.20;;;;;;;25.96;nan;101908.31;5023439;28;20095;-48
2022/05/10 11:39:34;;;;;;;4.43;2.22;;;;;;;26.00;nan;101906.53;5023967;28;20025;-49
2022/05/10 11:42:18;;;;;;;6.50;2.53;;;;;;;26.11;nan;101903.13;5021595;28;20065;-47
2022/05/10 11:44:46;;;;;;;3.85;2.08;;;;;;;26.33;nan;101893.88;5021822;28;20030;-46
2022/05/10 11:47:49;;;;;;;5.63;2.30;;;;;;;26.40;nan;101891.47;5022465;28;20041;-46
2022/05/10 11:50:32;;;;;;;3.50;2.50;;;;;;;26.29;nan;101894.84;4957158;28;20042;-46
2022/05/10 11:53:26;;;;;;;5.70;2.30;;;;;;;26.03;nan;101882.00;5016165;28;20033;-46
2022/05/10 11:55:57;;;;;;;5.72;2.92;;;;;;;26.16;nan;101875.47;5022033;28;20040;-47
2022/05/10 11:58:28;;;;;;;29.58;3.95;;;;;;;26.36;nan;101873.19;5019581;28;20034;-46
2022/05/10 12:01:03;;;;;;;7.35;3.20;;;;;;;26.43;nan;101874.31;5020184;28;20396;-46
2022/05/10 12:03:43;;;;;;;3.22;2.50;;;;;;;26.46;nan;101864.63;5021703;28;20482;-46
2022/05/10 12:06:24;;;;;;;7.13;2.58;;;;;;;26.67;nan;101857.25;5020908;28;20493;-46
2022/05/10 12:08:55;;;;;;;5.80;2.88;;;;;;;26.86;nan;101856.03;5018026;28;20032;-46
2022/05/10 12:11:41;;;;;;;6.57;2.95;;;;;;;27.06;nan;101856.09;5018168;28;20033;-46
2022/05/10 12:22:50;;;;;;;6.30;2.72;;;;;;;27.55;nan;101830.81;5019313;28;20065;-47
2022/05/10 12:25:54;;;;;;;4.32;2.45;;;;;;;27.36;nan;101840.38;5018770;28;20022;-47